Aérodrome :
LOGIN :

S'inscrire | Disclaimer

   EN    FR    IT 

 










Légende :    VFR   VFR Marginal   IFR   IFR Intensif   IFR Très Intensif
Visi : 
Plafond : 
>= 8 km
>= 3000ft
5 à 8 km
1000 à 3000 ft
1500m à 5 km
500 à 1000 ft
800 à 1500m
200 à 500 ft
< 800m
< 200 ft
Symboles :   Orages  Brouillard  Fortes neiges  Fortes précipitations  Vent > 20 kt
SIGMETs :   Divers  Orages  Givrage  Turbulence  Onde Orograph.  Cendres Volcan.







- Altitude de l'aérodrome : 1548 ft


LKNA - Náměšť Air Base

DERNIER METAR :
  • 201900Z 27014KT CAVOK 02/M02 Q1016 NOSIG RMK BLU BLU

METARs EXPIRÉS :
  • 201800Z 28014KT CAVOK 02/M02 Q1016 NOSIG RMK BLU BLU
  • 201700Z 27015KT 9999 FEW024 SCT070 02/M02 Q1016 NOSIG RMK BLU BLU
  • 201600Z 28016KT 9999 BKN027 BKN070 03/M01 Q1016 NOSIG RMK BLU BLU

TAF TAF LKNA
Valide du 20 à 18h jusqu'au 21 à 18h UTC


201700Z 2018/2118 28016KT 9999 BKN030
BECMG 2022/2100 22008KT 4000 SN BKN010 OVC020
TEMPO 2023/2108 2000 SN BKN006 OVC010
BECMG 2106/2108 4000 SNRA
BECMG 2108/2110 5000 RA BR BKN015
BECMG 2112/2114 28010KT 7000 NSW BKN020
Pas de NOTAMs connus pour ce terrain.



MET'MAP, la Météo Aéronautique d'un coup d'oeil ! - Copyright ORBIFLY Décembre 2007 - Disclaimer

ORBIFLY MET'MAP TEAM :

Programmation & Développement : Alexandra Zaïnal
Conception & Développement : Baudouin d'Aumeries
Co-Programmation & Développement : Marc-Olivier Méhu
Soutien technique & logistique : Manuel Goepfert

Contact : metmap@orbifly.com




SOURCES & CREDITS :

   NOAA